sensor_id;sensor_type;location;lat;lon;timestamp;P1;durP1;ratioP1;P2;durP2;ratioP2
12906;SDS011;6521;50.498;8.474;2022-07-01T00:00:00;7.50;;;6.80;;
12906;SDS011;6521;50.498;8.474;2022-07-01T00:02:31;6.53;;;6.03;;
12906;SDS011;6521;50.498;8.474;2022-07-01T00:05:02;6.72;;;6.15;;
12906;SDS011;6521;50.498;8.474;2022-07-01T00:07:48;6.13;;;5.53;;
12906;SDS011;6521;50.498;8.474;2022-07-01T00:10:19;7.55;;;6.90;;
12906;SDS011;6521;50.498;8.474;2022-07-01T00:12:50;6.70;;;6.20;;
12906;SDS011;6521;50.498;8.474;2022-07-01T00:15:21;7.05;;;6.47;;
12906;SDS011;6521;50.498;8.474;2022-07-01T00:17:52;7.15;;;6.55;;
12906;SDS011;6521;50.498;8.474;2022-07-01T00:20:23;8.25;;;7.47;;
12906;SDS011;6521;50.498;8.474;2022-07-01T00:22:54;8.00;;;7.40;;
12906;SDS011;6521;50.498;8.474;2022-07-01T00:25:24;9.43;;;7.93;;
12906;SDS011;6521;50.498;8.474;2022-07-01T00:27:55;7.97;;;7.38;;
12906;SDS011;6521;50.498;8.474;2022-07-01T00:30:25;8.38;;;7.57;;
12906;SDS011;6521;50.498;8.474;2022-07-01T00:32:56;8.45;;;7.75;;
12906;SDS011;6521;50.498;8.474;2022-07-01T00:35:27;8.45;;;7.72;;
12906;SDS011;6521;50.498;8.474;2022-07-01T00:37:58;9.27;;;8.25;;
12906;SDS011;6521;50.498;8.474;2022-07-01T00:40:28;8.38;;;7.57;;
12906;SDS011;6521;50.498;8.474;2022-07-01T00:43:00;10.85;;;7.97;;
12906;SDS011;6521;50.498;8.474;2022-07-01T00:45:31;7.97;;;7.28;;
12906;SDS011;6521;50.498;8.474;2022-07-01T00:48:01;7.85;;;7.25;;
12906;SDS011;6521;50.498;8.474;2022-07-01T00:50:32;7.45;;;6.85;;
12906;SDS011;6521;50.498;8.474;2022-07-01T00:53:03;7.72;;;7.03;;
12906;SDS011;6521;50.498;8.474;2022-07-01T00:55:35;8.38;;;7.63;;
12906;SDS011;6521;50.498;8.474;2022-07-01T00:58:06;9.13;;;8.23;;
12906;SDS011;6521;50.498;8.474;2022-07-01T01:00:38;7.45;;;6.85;;
12906;SDS011;6521;50.498;8.474;2022-07-01T01:03:08;7.82;;;7.22;;
12906;SDS011;6521;50.498;8.474;2022-07-01T01:05:41;7.53;;;6.88;;
12906;SDS011;6521;50.498;8.474;2022-07-01T01:08:12;10.45;;;7.03;;
12906;SDS011;6521;50.498;8.474;2022-07-01T01:10:42;8.43;;;7.72;;
12906;SDS011;6521;50.498;8.474;2022-07-01T01:13:13;9.55;;;8.63;;
12906;SDS011;6521;50.498;8.474;2022-07-01T01:15:44;8.10;;;7.40;;
12906;SDS011;6521;50.498;8.474;2022-07-01T01:18:15;8.52;;;7.78;;
12906;SDS011;6521;50.498;8.474;2022-07-01T01:20:45;9.40;;;8.35;;
12906;SDS011;6521;50.498;8.474;2022-07-01T01:23:16;8.65;;;7.22;;
12906;SDS011;6521;50.498;8.474;2022-07-01T01:25:47;8.40;;;7.70;;
12906;SDS011;6521;50.498;8.474;2022-07-01T01:28:18;7.15;;;6.40;;
12906;SDS011;6521;50.498;8.474;2022-07-01T01:30:48;7.60;;;6.90;;
12906;SDS011;6521;50.498;8.474;2022-07-01T01:33:19;6.20;;;5.60;;
12906;SDS011;6521;50.498;8.474;2022-07-01T01:35:50;5.93;;;5.40;;
12906;SDS011;6521;50.498;8.474;2022-07-01T01:38:20;6.53;;;5.97;;
12906;SDS011;6521;50.498;8.474;2022-07-01T01:40:51;7.38;;;6.30;;
12906;SDS011;6521;50.498;8.474;2022-07-01T01:43:22;5.53;;;5.03;;
12906;SDS011;6521;50.498;8.474;2022-07-01T01:45:53;10.65;;;5.30;;
12906;SDS011;6521;50.498;8.474;2022-07-01T01:48:24;6.28;;;5.28;;
12906;SDS011;6521;50.498;8.474;2022-07-01T01:50:54;5.68;;;4.57;;
12906;SDS011;6521;50.498;8.474;2022-07-01T01:53:25;5.05;;;4.63;;
12906;SDS011;6521;50.498;8.474;2022-07-01T01:55:56;6.53;;;4.75;;
12906;SDS011;6521;50.498;8.474;2022-07-01T01:58:26;16.30;;;4.80;;
12906;SDS011;6521;50.498;8.474;2022-07-01T02:00:57;8.95;;;5.20;;
12906;SDS011;6521;50.498;8.474;2022-07-01T02:03:28;4.85;;;4.43;;
12906;SDS011;6521;50.498;8.474;2022-07-01T02:05:59;5.80;;;4.38;;
12906;SDS011;6521;50.498;8.474;2022-07-01T02:08:29;6.53;;;3.90;;
12906;SDS011;6521;50.498;8.474;2022-07-01T02:11:00;4.03;;;3.58;;
12906;SDS011;6521;50.498;8.474;2022-07-01T02:13:32;4.40;;;4.00;;
12906;SDS011;6521;50.498;8.474;2022-07-01T02:16:03;4.28;;;3.88;;
12906;SDS011;6521;50.498;8.474;2022-07-01T02:18:34;4.45;;;3.95;;
12906;SDS011;6521;50.498;8.474;2022-07-01T02:21:05;4.10;;;3.42;;
12906;SDS011;6521;50.498;8.474;2022-07-01T02:23:35;8.48;;;3.80;;
12906;SDS011;6521;50.498;8.474;2022-07-01T02:26:06;3.75;;;3.33;;
12906;SDS011;6521;50.498;8.474;2022-07-01T02:28:37;4.32;;;3.10;;
12906;SDS011;6521;50.498;8.474;2022-07-01T02:31:07;3.85;;;3.55;;
12906;SDS011;6521;50.498;8.474;2022-07-01T02:33:38;3.50;;;3.20;;
12906;SDS011;6521;50.498;8.474;2022-07-01T02:36:09;3.55;;;3.25;;
12906;SDS011;6521;50.498;8.474;2022-07-01T02:38:40;3.95;;;3.50;;
12906;SDS011;6521;50.498;8.474;2022-07-01T02:41:10;7.60;;;3.95;;
12906;SDS011;6521;50.498;8.474;2022-07-01T02:43:41;8.15;;;3.38;;
12906;SDS011;6521;50.498;8.474;2022-07-01T02:46:12;4.65;;;3.78;;
12906;SDS011;6521;50.498;8.474;2022-07-01T02:48:42;4.47;;;3.65;;
12906;SDS011;6521;50.498;8.474;2022-07-01T02:51:13;3.60;;;3.30;;
12906;SDS011;6521;50.498;8.474;2022-07-01T02:53:44;7.65;;;3.55;;
12906;SDS011;6521;50.498;8.474;2022-07-01T02:56:15;4.78;;;3.35;;
12906;SDS011;6521;50.498;8.474;2022-07-01T02:58:46;5.47;;;3.28;;
12906;SDS011;6521;50.498;8.474;2022-07-01T03:01:17;8.52;;;3.30;;
12906;SDS011;6521;50.498;8.474;2022-07-01T03:03:48;4.45;;;3.08;;
12906;SDS011;6521;50.498;8.474;2022-07-01T03:06:18;3.50;;;2.90;;
12906;SDS011;6521;50.498;8.474;2022-07-01T03:08:49;7.43;;;3.20;;
12906;SDS011;6521;50.498;8.474;2022-07-01T03:11:20;2.85;;;2.65;;
12906;SDS011;6521;50.498;8.474;2022-07-01T03:13:50;3.72;;;2.80;;
12906;SDS011;6521;50.498;8.474;2022-07-01T03:16:21;2.97;;;2.58;;
12906;SDS011;6521;50.498;8.474;2022-07-01T03:18:52;3.20;;;2.90;;
12906;SDS011;6521;50.498;8.474;2022-07-01T03:21:23;5.25;;;2.83;;
12906;SDS011;6521;50.498;8.474;2022-07-01T03:23:53;3.05;;;2.55;;
12906;SDS011;6521;50.498;8.474;2022-07-01T03:26:24;3.28;;;2.72;;
12906;SDS011;6521;50.498;8.474;2022-07-01T03:28:54;4.35;;;3.00;;
12906;SDS011;6521;50.498;8.474;2022-07-01T03:31:25;2.80;;;2.60;;
12906;SDS011;6521;50.498;8.474;2022-07-01T03:33:56;4.40;;;3.05;;
12906;SDS011;6521;50.498;8.474;2022-07-01T03:36:27;3.03;;;2.80;;
12906;SDS011;6521;50.498;8.474;2022-07-01T03:38:58;3.20;;;2.90;;
12906;SDS011;6521;50.498;8.474;2022-07-01T03:41:28;3.90;;;3.35;;
12906;SDS011;6521;50.498;8.474;2022-07-01T03:43:59;3.20;;;2.63;;
12906;SDS011;6521;50.498;8.474;2022-07-01T03:46:30;3.45;;;2.65;;
12906;SDS011;6521;50.498;8.474;2022-07-01T03:49:02;6.50;;;2.85;;
12906;SDS011;6521;50.498;8.474;2022-07-01T03:51:32;4.10;;;3.17;;
12906;SDS011;6521;50.498;8.474;2022-07-01T03:54:03;4.35;;;3.50;;
12906;SDS011;6521;50.498;8.474;2022-07-01T03:56:53;3.47;;;3.17;;
12906;SDS011;6521;50.498;8.474;2022-07-01T03:59:24;3.30;;;3.00;;
12906;SDS011;6521;50.498;8.474;2022-07-01T04:01:56;4.93;;;2.97;;
12906;SDS011;6521;50.498;8.474;2022-07-01T04:04:28;3.72;;;3.28;;
12906;SDS011;6521;50.498;8.474;2022-07-01T04:07:00;2.80;;;2.60;;
12906;SDS011;6521;50.498;8.474;2022-07-01T04:09:32;3.17;;;2.88;;
12906;SDS011;6521;50.498;8.474;2022-07-01T04:12:04;3.70;;;2.92;;
12906;SDS011;6521;50.498;8.474;2022-07-01T04:14:37;3.15;;;2.88;;
12906;SDS011;6521;50.498;8.474;2022-07-01T04:17:08;5.20;;;3.25;;
12906;SDS011;6521;50.498;8.474;2022-07-01T04:19:39;3.53;;;2.97;;
12906;SDS011;6521;50.498;8.474;2022-07-01T04:22:10;2.97;;;2.67;;
12906;SDS011;6521;50.498;8.474;2022-07-01T04:24:59;2.88;;;2.67;;
12906;SDS011;6521;50.498;8.474;2022-07-01T04:27:31;2.90;;;2.70;;
12906;SDS011;6521;50.498;8.474;2022-07-01T04:30:02;2.67;;;2.47;;
12906;SDS011;6521;50.498;8.474;2022-07-01T04:32:33;2.60;;;2.40;;
12906;SDS011;6521;50.498;8.474;2022-07-01T04:35:04;4.03;;;2.63;;
12906;SDS011;6521;50.498;8.474;2022-07-01T04:37:35;2.90;;;2.70;;
12906;SDS011;6521;50.498;8.474;2022-07-01T04:40:07;2.70;;;2.50;;
12906;SDS011;6521;50.498;8.474;2022-07-01T04:42:38;2.65;;;2.40;;
12906;SDS011;6521;50.498;8.474;2022-07-01T04:45:09;2.65;;;2.25;;
12906;SDS011;6521;50.498;8.474;2022-07-01T04:47:40;4.50;;;2.55;;
12906;SDS011;6521;50.498;8.474;2022-07-01T04:50:11;3.10;;;2.50;;
12906;SDS011;6521;50.498;8.474;2022-07-01T04:52:41;4.05;;;2.22;;
12906;SDS011;6521;50.498;8.474;2022-07-01T04:55:12;2.63;;;2.08;;
12906;SDS011;6521;50.498;8.474;2022-07-01T04:57:43;2.00;;;1.90;;
12906;SDS011;6521;50.498;8.474;2022-07-01T05:00:13;2.80;;;2.17;;
12906;SDS011;6521;50.498;8.474;2022-07-01T05:02:44;2.22;;;1.92;;
12906;SDS011;6521;50.498;8.474;2022-07-01T05:05:15;2.13;;;1.80;;
12906;SDS011;6521;50.498;8.474;2022-07-01T05:07:46;3.40;;;1.70;;
12906;SDS011;6521;50.498;8.474;2022-07-01T05:10:17;2.85;;;1.83;;
12906;SDS011;6521;50.498;8.474;2022-07-01T05:12:48;1.65;;;1.52;;
12906;SDS011;6521;50.498;8.474;2022-07-01T05:15:19;1.85;;;1.40;;
12906;SDS011;6521;50.498;8.474;2022-07-01T05:17:49;1.27;;;1.17;;
12906;SDS011;6521;50.498;8.474;2022-07-01T05:20:39;1.42;;;1.30;;
12906;SDS011;6521;50.498;8.474;2022-07-01T05:23:28;1.60;;;1.50;;
12906;SDS011;6521;50.498;8.474;2022-07-01T05:25:59;1.30;;;1.20;;
12906;SDS011;6521;50.498;8.474;2022-07-01T05:28:30;1.75;;;1.20;;
12906;SDS011;6521;50.498;8.474;2022-07-01T05:31:00;1.42;;;1.33;;
12906;SDS011;6521;50.498;8.474;2022-07-01T05:33:31;1.60;;;1.50;;
12906;SDS011;6521;50.498;8.474;2022-07-01T05:36:01;5.07;;;1.65;;
12906;SDS011;6521;50.498;8.474;2022-07-01T05:38:32;2.30;;;1.63;;
12906;SDS011;6521;50.498;8.474;2022-07-01T05:41:03;2.38;;;2.00;;
12906;SDS011;6521;50.498;8.474;2022-07-01T05:43:34;2.63;;;1.73;;
12906;SDS011;6521;50.498;8.474;2022-07-01T05:46:04;2.83;;;1.40;;
12906;SDS011;6521;50.498;8.474;2022-07-01T05:48:35;2.58;;;1.30;;
12906;SDS011;6521;50.498;8.474;2022-07-01T05:51:06;1.85;;;1.50;;
12906;SDS011;6521;50.498;8.474;2022-07-01T05:53:36;17.23;;;2.20;;
12906;SDS011;6521;50.498;8.474;2022-07-01T05:56:07;2.97;;;1.30;;
12906;SDS011;6521;50.498;8.474;2022-07-01T05:58:38;6.25;;;1.75;;
12906;SDS011;6521;50.498;8.474;2022-07-01T06:01:08;2.03;;;1.60;;
12906;SDS011;6521;50.498;8.474;2022-07-01T06:03:39;2.50;;;1.50;;
12906;SDS011;6521;50.498;8.474;2022-07-01T06:06:09;2.22;;;1.52;;
12906;SDS011;6521;50.498;8.474;2022-07-01T06:08:40;4.43;;;1.90;;
12906;SDS011;6521;50.498;8.474;2022-07-01T06:11:11;2.22;;;2.03;;
12906;SDS011;6521;50.498;8.474;2022-07-01T06:13:41;2.70;;;2.00;;
12906;SDS011;6521;50.498;8.474;2022-07-01T06:16:12;4.45;;;1.90;;
12906;SDS011;6521;50.498;8.474;2022-07-01T06:18:42;8.35;;;2.08;;
12906;SDS011;6521;50.498;8.474;2022-07-01T06:21:13;3.85;;;1.90;;
12906;SDS011;6521;50.498;8.474;2022-07-01T06:23:45;4.03;;;1.88;;
12906;SDS011;6521;50.498;8.474;2022-07-01T06:26:16;5.97;;;1.90;;
12906;SDS011;6521;50.498;8.474;2022-07-01T06:28:46;3.60;;;2.28;;
12906;SDS011;6521;50.498;8.474;2022-07-01T06:31:17;8.48;;;2.33;;
12906;SDS011;6521;50.498;8.474;2022-07-01T06:33:48;3.97;;;1.75;;
12906;SDS011;6521;50.498;8.474;2022-07-01T06:36:18;2.08;;;1.88;;
12906;SDS011;6521;50.498;8.474;2022-07-01T06:38:49;3.25;;;1.95;;
12906;SDS011;6521;50.498;8.474;2022-07-01T06:41:20;5.85;;;2.13;;
12906;SDS011;6521;50.498;8.474;2022-07-01T06:44:00;7.85;;;1.90;;
12906;SDS011;6521;50.498;8.474;2022-07-01T06:46:32;2.05;;;1.60;;
12906;SDS011;6521;50.498;8.474;2022-07-01T06:49:03;3.20;;;1.60;;
12906;SDS011;6521;50.498;8.474;2022-07-01T06:51:34;4.43;;;1.80;;
12906;SDS011;6521;50.498;8.474;2022-07-01T06:54:04;1.73;;;1.63;;
12906;SDS011;6521;50.498;8.474;2022-07-01T06:56:35;2.55;;;1.52;;
12906;SDS011;6521;50.498;8.474;2022-07-01T06:59:06;2.08;;;1.67;;
12906;SDS011;6521;50.498;8.474;2022-07-01T07:01:36;2.10;;;1.90;;
12906;SDS011;6521;50.498;8.474;2022-07-01T07:04:07;2.42;;;1.48;;
12906;SDS011;6521;50.498;8.474;2022-07-01T07:06:38;2.15;;;1.50;;
12906;SDS011;6521;50.498;8.474;2022-07-01T07:09:08;1.75;;;1.63;;
12906;SDS011;6521;50.498;8.474;2022-07-01T07:11:39;1.40;;;1.30;;
12906;SDS011;6521;50.498;8.474;2022-07-01T07:14:10;2.22;;;1.48;;
12906;SDS011;6521;50.498;8.474;2022-07-01T07:16:42;1.65;;;1.55;;
12906;SDS011;6521;50.498;8.474;2022-07-01T07:19:12;2.30;;;1.80;;
12906;SDS011;6521;50.498;8.474;2022-07-01T07:21:43;1.30;;;1.20;;
12906;SDS011;6521;50.498;8.474;2022-07-01T07:24:14;1.98;;;1.35;;
12906;SDS011;6521;50.498;8.474;2022-07-01T07:26:44;1.63;;;1.50;;
12906;SDS011;6521;50.498;8.474;2022-07-01T07:29:15;1.60;;;1.40;;
12906;SDS011;6521;50.498;8.474;2022-07-01T07:31:45;1.30;;;1.20;;
12906;SDS011;6521;50.498;8.474;2022-07-01T07:34:16;1.85;;;1.70;;
12906;SDS011;6521;50.498;8.474;2022-07-01T07:36:47;3.10;;;1.45;;
12906;SDS011;6521;50.498;8.474;2022-07-01T07:39:17;2.63;;;1.60;;
12906;SDS011;6521;50.498;8.474;2022-07-01T07:41:48;7.78;;;1.60;;
12906;SDS011;6521;50.498;8.474;2022-07-01T07:44:20;3.22;;;1.60;;
12906;SDS011;6521;50.498;8.474;2022-07-01T07:46:50;3.58;;;1.60;;
12906;SDS011;6521;50.498;8.474;2022-07-01T07:49:21;2.25;;;1.45;;
12906;SDS011;6521;50.498;8.474;2022-07-01T07:51:51;2.28;;;1.45;;
12906;SDS011;6521;50.498;8.474;2022-07-01T07:54:22;2.28;;;1.25;;
12906;SDS011;6521;50.498;8.474;2022-07-01T07:56:53;4.10;;;1.48;;
12906;SDS011;6521;50.498;8.474;2022-07-01T07:59:24;1.75;;;1.27;;
12906;SDS011;6521;50.498;8.474;2022-07-01T08:01:55;1.73;;;1.35;;
12906;SDS011;6521;50.498;8.474;2022-07-01T08:04:26;1.83;;;1.20;;
12906;SDS011;6521;50.498;8.474;2022-07-01T08:06:57;2.00;;;1.52;;
12906;SDS011;6521;50.498;8.474;2022-07-01T08:09:27;2.70;;;1.35;;
12906;SDS011;6521;50.498;8.474;2022-07-01T08:11:58;2.63;;;1.38;;
12906;SDS011;6521;50.498;8.474;2022-07-01T08:14:29;5.82;;;2.08;;
12906;SDS011;6521;50.498;8.474;2022-07-01T08:17:00;2.45;;;1.42;;
12906;SDS011;6521;50.498;8.474;2022-07-01T08:19:30;2.45;;;1.35;;
12906;SDS011;6521;50.498;8.474;2022-07-01T08:22:01;2.80;;;1.27;;
12906;SDS011;6521;50.498;8.474;2022-07-01T08:24:32;3.03;;;1.70;;
12906;SDS011;6521;50.498;8.474;2022-07-01T08:27:03;8.30;;;1.83;;
12906;SDS011;6521;50.498;8.474;2022-07-01T08:29:34;2.72;;;1.55;;
12906;SDS011;6521;50.498;8.474;2022-07-01T08:32:06;4.03;;;1.60;;
12906;SDS011;6521;50.498;8.474;2022-07-01T08:34:37;8.30;;;2.30;;
12906;SDS011;6521;50.498;8.474;2022-07-01T08:37:08;3.53;;;1.48;;
12906;SDS011;6521;50.498;8.474;2022-07-01T08:39:38;3.10;;;1.50;;
12906;SDS011;6521;50.498;8.474;2022-07-01T08:42:09;2.65;;;1.40;;
12906;SDS011;6521;50.498;8.474;2022-07-01T08:44:40;3.60;;;1.70;;
12906;SDS011;6521;50.498;8.474;2022-07-01T08:47:11;2.70;;;1.50;;
12906;SDS011;6521;50.498;8.474;2022-07-01T08:49:43;1.55;;;1.33;;
12906;SDS011;6521;50.498;8.474;2022-07-01T08:52:14;1.63;;;1.48;;
12906;SDS011;6521;50.498;8.474;2022-07-01T08:54:45;2.78;;;1.40;;
12906;SDS011;6521;50.498;8.474;2022-07-01T08:57:20;2.88;;;1.60;;
12906;SDS011;6521;50.498;8.474;2022-07-01T09:00:04;3.35;;;1.50;;
12906;SDS011;6521;50.498;8.474;2022-07-01T09:05:34;3.20;;;1.60;;
12906;SDS011;6521;50.498;8.474;2022-07-01T09:08:06;2.95;;;1.60;;
12906;SDS011;6521;50.498;8.474;2022-07-01T09:10:37;6.30;;;1.75;;
12906;SDS011;6521;50.498;8.474;2022-07-01T09:13:08;5.18;;;2.22;;
12906;SDS011;6521;50.498;8.474;2022-07-01T09:15:44;3.58;;;1.75;;
12906;SDS011;6521;50.498;8.474;2022-07-01T09:18:15;3.03;;;1.40;;
12906;SDS011;6521;50.498;8.474;2022-07-01T09:20:46;3.17;;;1.50;;
12906;SDS011;6521;50.498;8.474;2022-07-01T09:23:20;2.22;;;1.33;;
12906;SDS011;6521;50.498;8.474;2022-07-01T09:25:50;3.42;;;1.45;;
12906;SDS011;6521;50.498;8.474;2022-07-01T09:28:25;3.47;;;1.75;;
12906;SDS011;6521;50.498;8.474;2022-07-01T09:30:57;3.40;;;1.65;;
12906;SDS011;6521;50.498;8.474;2022-07-01T09:33:29;4.10;;;1.40;;
12906;SDS011;6521;50.498;8.474;2022-07-01T09:36:00;4.95;;;1.92;;
12906;SDS011;6521;50.498;8.474;2022-07-01T09:38:30;3.20;;;1.48;;
12906;SDS011;6521;50.498;8.474;2022-07-01T09:41:01;4.75;;;1.90;;
12906;SDS011;6521;50.498;8.474;2022-07-01T09:43:34;4.15;;;1.60;;
12906;SDS011;6521;50.498;8.474;2022-07-01T09:46:06;3.53;;;1.70;;
12906;SDS011;6521;50.498;8.474;2022-07-01T09:51:09;4.00;;;1.50;;
12906;SDS011;6521;50.498;8.474;2022-07-01T09:53:42;6.57;;;1.90;;
12906;SDS011;6521;50.498;8.474;2022-07-01T09:56:13;9.35;;;1.63;;
12906;SDS011;6521;50.498;8.474;2022-07-01T09:58:44;3.00;;;1.92;;
12906;SDS011;6521;50.498;8.474;2022-07-01T10:01:15;3.95;;;1.63;;
12906;SDS011;6521;50.498;8.474;2022-07-01T10:03:47;3.38;;;1.33;;
12906;SDS011;6521;50.498;8.474;2022-07-01T10:09:11;4.43;;;1.75;;
12906;SDS011;6521;50.498;8.474;2022-07-01T10:14:51;1.63;;;1.20;;
12906;SDS011;6521;50.498;8.474;2022-07-01T10:17:26;4.60;;;1.83;;
12906;SDS011;6521;50.498;8.474;2022-07-01T10:20:08;6.68;;;1.90;;
12906;SDS011;6521;50.498;8.474;2022-07-01T10:22:41;2.45;;;1.48;;
12906;SDS011;6521;50.498;8.474;2022-07-01T10:28:46;6.35;;;1.60;;
12906;SDS011;6521;50.498;8.474;2022-07-01T10:31:13;3.13;;;1.63;;
12906;SDS011;6521;50.498;8.474;2022-07-01T10:33:55;2.72;;;1.40;;
12906;SDS011;6521;50.498;8.474;2022-07-01T10:36:31;3.00;;;1.60;;
12906;SDS011;6521;50.498;8.474;2022-07-01T10:41:37;2.28;;;1.42;;
12906;SDS011;6521;50.498;8.474;2022-07-01T10:44:12;5.60;;;1.60;;
12906;SDS011;6521;50.498;8.474;2022-07-01T10:52:12;4.35;;;1.52;;
12906;SDS011;6521;50.498;8.474;2022-07-01T10:54:47;2.85;;;1.17;;
12906;SDS011;6521;50.498;8.474;2022-07-01T10:57:27;3.53;;;1.45;;
12906;SDS011;6521;50.498;8.474;2022-07-01T11:02:32;4.03;;;1.40;;
12906;SDS011;6521;50.498;8.474;2022-07-01T11:05:07;2.85;;;1.30;;
12906;SDS011;6521;50.498;8.474;2022-07-01T11:07:40;3.45;;;1.30;;
12906;SDS011;6521;50.498;8.474;2022-07-01T11:10:13;2.13;;;1.35;;
12906;SDS011;6521;50.498;8.474;2022-07-01T11:12:46;3.70;;;1.58;;
12906;SDS011;6521;50.498;8.474;2022-07-01T11:15:19;2.30;;;1.30;;
12906;SDS011;6521;50.498;8.474;2022-07-01T11:17:52;1.75;;;1.33;;
12906;SDS011;6521;50.498;8.474;2022-07-01T11:20:27;3.28;;;1.60;;
12906;SDS011;6521;50.498;8.474;2022-07-01T11:23:01;2.88;;;1.10;;
12906;SDS011;6521;50.498;8.474;2022-07-01T11:25:32;2.28;;;1.20;;
12906;SDS011;6521;50.498;8.474;2022-07-01T11:28:03;3.92;;;1.27;;
12906;SDS011;6521;50.498;8.474;2022-07-01T11:30:33;2.90;;;1.25;;
12906;SDS011;6521;50.498;8.474;2022-07-01T11:33:04;4.97;;;1.77;;
12906;SDS011;6521;50.498;8.474;2022-07-01T11:35:35;1.90;;;1.33;;
12906;SDS011;6521;50.498;8.474;2022-07-01T11:38:25;4.72;;;1.40;;
12906;SDS011;6521;50.498;8.474;2022-07-01T11:41:19;1.92;;;1.70;;
12906;SDS011;6521;50.498;8.474;2022-07-01T11:43:52;2.20;;;1.17;;
12906;SDS011;6521;50.498;8.474;2022-07-01T11:46:23;3.13;;;1.20;;
12906;SDS011;6521;50.498;8.474;2022-07-01T11:48:54;3.60;;;1.40;;
12906;SDS011;6521;50.498;8.474;2022-07-01T11:51:26;3.22;;;1.50;;
12906;SDS011;6521;50.498;8.474;2022-07-01T11:53:57;2.75;;;1.58;;
12906;SDS011;6521;50.498;8.474;2022-07-01T11:56:31;2.50;;;1.52;;
12906;SDS011;6521;50.498;8.474;2022-07-01T11:59:04;1.85;;;0.95;;
12906;SDS011;6521;50.498;8.474;2022-07-01T12:01:36;1.33;;;1.20;;
12906;SDS011;6521;50.498;8.474;2022-07-01T12:04:11;3.20;;;1.38;;
12906;SDS011;6521;50.498;8.474;2022-07-01T12:06:45;2.50;;;1.20;;
12906;SDS011;6521;50.498;8.474;2022-07-01T12:09:18;4.90;;;1.50;;
12906;SDS011;6521;50.498;8.474;2022-07-01T12:11:51;1.35;;;1.05;;
12906;SDS011;6521;50.498;8.474;2022-07-01T12:14:30;1.60;;;1.20;;
12906;SDS011;6521;50.498;8.474;2022-07-01T12:17:03;4.63;;;1.35;;
12906;SDS011;6521;50.498;8.474;2022-07-01T12:19:39;1.30;;;1.20;;
12906;SDS011;6521;50.498;8.474;2022-07-01T12:22:13;1.90;;;1.40;;
12906;SDS011;6521;50.498;8.474;2022-07-01T12:24:49;2.67;;;1.40;;
12906;SDS011;6521;50.498;8.474;2022-07-01T12:27:35;2.33;;;1.30;;
12906;SDS011;6521;50.498;8.474;2022-07-01T12:30:09;3.38;;;1.20;;
12906;SDS011;6521;50.498;8.474;2022-07-01T12:32:42;3.25;;;1.10;;
12906;SDS011;6521;50.498;8.474;2022-07-01T12:35:22;1.45;;;1.30;;
12906;SDS011;6521;50.498;8.474;2022-07-01T12:38:07;1.95;;;1.30;;
12906;SDS011;6521;50.498;8.474;2022-07-01T12:40:45;1.90;;;1.27;;
12906;SDS011;6521;50.498;8.474;2022-07-01T12:46:26;9.25;;;1.80;;
12906;SDS011;6521;50.498;8.474;2022-07-01T12:48:58;5.97;;;1.45;;
12906;SDS011;6521;50.498;8.474;2022-07-01T12:51:30;2.30;;;1.38;;
12906;SDS011;6521;50.498;8.474;2022-07-01T12:54:02;1.52;;;1.20;;
12906;SDS011;6521;50.498;8.474;2022-07-01T12:56:33;2.75;;;1.60;;
12906;SDS011;6521;50.498;8.474;2022-07-01T12:59:04;4.45;;;1.35;;
12906;SDS011;6521;50.498;8.474;2022-07-01T13:01:34;1.83;;;1.60;;
12906;SDS011;6521;50.498;8.474;2022-07-01T13:04:05;5.45;;;1.60;;
12906;SDS011;6521;50.498;8.474;2022-07-01T13:06:35;1.75;;;1.00;;
12906;SDS011;6521;50.498;8.474;2022-07-01T13:09:06;2.13;;;1.30;;
12906;SDS011;6521;50.498;8.474;2022-07-01T13:11:37;3.13;;;1.25;;
12906;SDS011;6521;50.498;8.474;2022-07-01T13:14:08;4.32;;;1.73;;
12906;SDS011;6521;50.498;8.474;2022-07-01T13:16:38;4.80;;;1.42;;
12906;SDS011;6521;50.498;8.474;2022-07-01T13:19:09;1.58;;;1.10;;
12906;SDS011;6521;50.498;8.474;2022-07-01T13:21:40;13.05;;;2.00;;
12906;SDS011;6521;50.498;8.474;2022-07-01T13:24:10;1.60;;;1.50;;
12906;SDS011;6521;50.498;8.474;2022-07-01T13:26:41;1.20;;;1.10;;
12906;SDS011;6521;50.498;8.474;2022-07-01T13:29:11;2.38;;;1.25;;
12906;SDS011;6521;50.498;8.474;2022-07-01T13:31:42;1.33;;;1.10;;
12906;SDS011;6521;50.498;8.474;2022-07-01T13:34:13;2.63;;;1.40;;
12906;SDS011;6521;50.498;8.474;2022-07-01T13:36:43;1.77;;;1.20;;
12906;SDS011;6521;50.498;8.474;2022-07-01T13:39:14;6.18;;;1.42;;
12906;SDS011;6521;50.498;8.474;2022-07-01T13:41:45;1.52;;;1.30;;
12906;SDS011;6521;50.498;8.474;2022-07-01T13:44:15;1.55;;;1.10;;
12906;SDS011;6521;50.498;8.474;2022-07-01T13:46:46;4.22;;;1.30;;
12906;SDS011;6521;50.498;8.474;2022-07-01T13:49:17;3.03;;;1.38;;
12906;SDS011;6521;50.498;8.474;2022-07-01T13:51:48;3.40;;;1.23;;
12906;SDS011;6521;50.498;8.474;2022-07-01T13:54:19;5.85;;;1.30;;
12906;SDS011;6521;50.498;8.474;2022-07-01T13:56:49;1.85;;;1.20;;
12906;SDS011;6521;50.498;8.474;2022-07-01T13:59:20;8.52;;;1.80;;
12906;SDS011;6521;50.498;8.474;2022-07-01T14:01:52;3.65;;;1.20;;
12906;SDS011;6521;50.498;8.474;2022-07-01T14:04:23;3.50;;;1.25;;
12906;SDS011;6521;50.498;8.474;2022-07-01T14:06:53;1.80;;;1.33;;
12906;SDS011;6521;50.498;8.474;2022-07-01T14:09:24;1.20;;;1.10;;
12906;SDS011;6521;50.498;8.474;2022-07-01T14:11:55;3.03;;;1.17;;
12906;SDS011;6521;50.498;8.474;2022-07-01T14:14:25;1.85;;;1.08;;
12906;SDS011;6521;50.498;8.474;2022-07-01T14:16:56;2.72;;;1.08;;
12906;SDS011;6521;50.498;8.474;2022-07-01T14:19:27;4.45;;;1.17;;
12906;SDS011;6521;50.498;8.474;2022-07-01T14:21:58;2.38;;;1.00;;
12906;SDS011;6521;50.498;8.474;2022-07-01T14:24:29;3.70;;;0.90;;
12906;SDS011;6521;50.498;8.474;2022-07-01T14:27:00;3.15;;;1.17;;
12906;SDS011;6521;50.498;8.474;2022-07-01T14:29:31;2.55;;;1.10;;
12906;SDS011;6521;50.498;8.474;2022-07-01T14:32:02;1.67;;;1.20;;
12906;SDS011;6521;50.498;8.474;2022-07-01T14:34:33;5.15;;;1.05;;
12906;SDS011;6521;50.498;8.474;2022-07-01T14:37:04;1.63;;;1.10;;
12906;SDS011;6521;50.498;8.474;2022-07-01T14:39:35;2.58;;;1.05;;
12906;SDS011;6521;50.498;8.474;2022-07-01T14:42:05;5.50;;;1.15;;
12906;SDS011;6521;50.498;8.474;2022-07-01T14:44:36;2.17;;;0.85;;
12906;SDS011;6521;50.498;8.474;2022-07-01T14:47:07;3.90;;;1.10;;
12906;SDS011;6521;50.498;8.474;2022-07-01T14:49:38;3.80;;;1.00;;
12906;SDS011;6521;50.498;8.474;2022-07-01T14:52:09;4.70;;;1.10;;
12906;SDS011;6521;50.498;8.474;2022-07-01T14:54:40;1.80;;;1.00;;
12906;SDS011;6521;50.498;8.474;2022-07-01T14:57:10;5.60;;;1.38;;
12906;SDS011;6521;50.498;8.474;2022-07-01T14:59:41;2.22;;;1.30;;
12906;SDS011;6521;50.498;8.474;2022-07-01T15:02:12;5.40;;;0.90;;
12906;SDS011;6521;50.498;8.474;2022-07-01T15:04:43;0.98;;;0.90;;
12906;SDS011;6521;50.498;8.474;2022-07-01T15:07:14;1.00;;;0.90;;
12906;SDS011;6521;50.498;8.474;2022-07-01T15:09:45;4.13;;;1.15;;
12906;SDS011;6521;50.498;8.474;2022-07-01T15:12:16;2.22;;;0.85;;
12906;SDS011;6521;50.498;8.474;2022-07-01T15:14:48;21.00;;;1.63;;
12906;SDS011;6521;50.498;8.474;2022-07-01T15:17:19;2.65;;;1.10;;
12906;SDS011;6521;50.498;8.474;2022-07-01T15:19:50;3.47;;;0.95;;
12906;SDS011;6521;50.498;8.474;2022-07-01T15:22:22;0.80;;;0.70;;
12906;SDS011;6521;50.498;8.474;2022-07-01T15:24:52;1.33;;;0.70;;
12906;SDS011;6521;50.498;8.474;2022-07-01T15:27:23;18.25;;;1.38;;
12906;SDS011;6521;50.498;8.474;2022-07-01T15:29:55;2.15;;;0.80;;
12906;SDS011;6521;50.498;8.474;2022-07-01T15:32:26;1.15;;;0.77;;
12906;SDS011;6521;50.498;8.474;2022-07-01T15:34:57;2.15;;;0.98;;
12906;SDS011;6521;50.498;8.474;2022-07-01T15:37:27;1.25;;;0.80;;
12906;SDS011;6521;50.498;8.474;2022-07-01T15:39:58;1.42;;;0.70;;
12906;SDS011;6521;50.498;8.474;2022-07-01T15:42:30;1.67;;;0.93;;
12906;SDS011;6521;50.498;8.474;2022-07-01T15:45:00;1.95;;;0.80;;
12906;SDS011;6521;50.498;8.474;2022-07-01T15:47:31;2.72;;;0.90;;
12906;SDS011;6521;50.498;8.474;2022-07-01T15:50:21;0.70;;;0.70;;
12906;SDS011;6521;50.498;8.474;2022-07-01T15:52:53;2.72;;;0.85;;
12906;SDS011;6521;50.498;8.474;2022-07-01T15:55:24;1.40;;;0.85;;